Time;durP1;ratioP1;P1;durP2;ratioP2;P2;SDS_P1;SDS_P2;PMS_P1;PMS_P2;Temp;Humidity;BMP_temperature;BMP_pressure;BME280_temperature;BME280_humidity;BME280_pressure;Samples;Min_cycle;Max_cycle;Signal;HPM_P1;HPM_P2
2022/12/14 00:03:57;;;;;;;9.85;5.00;;;-3.50;99.90;;;;;;7372368;32;20123;-60
2022/12/14 00:07:59;;;;;;;8.57;4.22;;;-3.50;99.90;;;;;;7370746;32;20129;-59
2022/12/14 00:12:00;;;;;;;10.38;3.72;;;-3.50;99.90;;;;;;7370614;32;20126;-60
2022/12/14 00:16:21;;;;;;;9.02;3.80;;;-3.50;99.90;;;;;;7383121;32;20169;-59
2022/12/14 00:20:23;;;;;;;8.18;3.70;;;-3.40;99.90;;;;;;7376495;32;20465;-59
2022/12/14 00:24:25;;;;;;;7.15;3.87;;;-3.40;99.90;;;;;;7374821;32;20240;-59
2022/12/14 00:28:26;;;;;;;6.80;3.28;;;-3.40;99.90;;;;;;7375495;32;20103;-60
2022/12/14 00:32:29;;;;;;;6.85;3.65;;;-3.30;99.90;;;;;;7374149;32;20103;-60
2022/12/14 00:36:30;;;;;;;7.90;3.78;;;-3.40;99.90;;;;;;7374015;32;20590;-60
2022/12/14 00:40:32;;;;;;;8.45;3.65;;;-3.40;99.90;;;;;;7375026;32;20519;-59
2022/12/14 00:44:34;;;;;;;6.53;3.30;;;-3.30;99.90;;;;;;7379233;32;20190;-62
2022/12/14 00:48:36;;;;;;;6.05;3.12;;;-3.30;99.90;;;;;;7380253;32;20126;-60
2022/12/14 00:52:37;;;;;;;7.70;3.62;;;-3.30;99.90;;;;;;7377332;32;20126;-60
2022/12/14 00:56:39;;;;;;;6.05;3.20;;;-3.20;99.90;;;;;;7369267;32;20598;-59
2022/12/14 01:00:43;;;;;;;8.18;3.87;;;-3.20;99.90;;;;;;7378690;32;20110;-60
2022/12/14 01:04:44;;;;;;;9.43;3.72;;;-3.20;99.90;;;;;;7381143;32;20658;-60
2022/12/14 01:08:47;;;;;;;7.53;4.10;;;-3.10;99.90;;;;;;7376585;32;20175;-60
2022/12/14 01:12:49;;;;;;;9.07;4.60;;;-3.20;99.90;;;;;;7375587;32;20145;-59
2022/12/14 01:16:50;;;;;;;7.82;4.20;;;-3.20;99.90;;;;;;7372617;32;20132;-60
2022/12/14 01:20:52;;;;;;;7.28;4.47;;;-3.20;99.90;;;;;;7368506;32;20130;-60
2022/12/14 01:24:54;;;;;;;8.60;3.72;;;-3.10;99.90;;;;;;7377488;32;20110;-60
2022/12/14 01:28:57;;;;;;;8.18;3.78;;;-3.20;99.90;;;;;;7380533;32;20134;-58
2022/12/14 01:32:59;;;;;;;7.70;3.87;;;-3.20;99.90;;;;;;7375035;32;20111;-58
2022/12/14 01:37:01;;;;;;;8.00;3.80;;;-3.30;99.90;;;;;;7375176;32;20150;-59
2022/12/14 01:41:03;;;;;;;9.93;3.58;;;-3.30;99.90;;;;;;7377418;32;20189;-61
2022/12/14 01:45:15;;;;;;;6.45;3.37;;;-3.40;99.90;;;;;;7375910;32;20133;-61
2022/12/14 01:49:44;;;;;;;7.82;3.25;;;-3.40;99.90;;;;;;7380774;32;21254;-58
2022/12/14 01:53:48;;;;;;;5.30;2.58;;;-3.50;99.90;;;;;;7373416;32;20202;-59
2022/12/14 01:58:00;;;;;;;5.93;2.97;;;-3.70;99.90;;;;;;7376352;32;20134;-58
2022/12/14 02:02:05;;;;;;;6.90;3.00;;;-3.70;99.90;;;;;;7369035;32;20111;-58
2022/12/14 02:06:21;;;;;;;5.20;3.08;;;-3.70;99.90;;;;;;7375601;32;20133;-58
2022/12/14 02:10:26;;;;;;;6.95;3.25;;;-3.80;99.90;;;;;;7380679;32;20127;-58
2022/12/14 02:14:28;;;;;;;5.32;3.20;;;-3.90;99.90;;;;;;7383976;32;20189;-59
2022/12/14 02:18:31;;;;;;;5.37;3.05;;;-3.90;99.90;;;;;;7369083;32;20134;-58
2022/12/14 02:22:47;;;;;;;5.80;3.15;;;-4.10;99.90;;;;;;7380012;32;20135;-59
2022/12/14 02:27:15;;;;;;;5.03;2.73;;;-4.10;99.90;;;;;;7375432;32;20111;-59
2022/12/14 02:31:40;;;;;;;4.18;2.37;;;-4.20;99.90;;;;;;7371372;32;20132;-59
2022/12/14 02:36:04;;;;;;;5.87;2.85;;;-4.30;99.90;;;;;;7374622;32;20596;-58
2022/12/14 02:40:28;;;;;;;5.28;3.00;;;-4.30;99.90;;;;;;7377619;32;20537;-59
2022/12/14 02:44:56;;;;;;;5.10;2.70;;;-4.30;99.90;;;;;;7371346;32;20129;-58
2022/12/14 02:49:14;;;;;;;5.55;2.60;;;-4.30;99.90;;;;;;7368949;32;20111;-59
2022/12/14 02:53:46;;;;;;;6.70;2.58;;;-4.30;99.90;;;;;;7376639;32;20115;-58
2022/12/14 02:58:03;;;;;;;7.35;3.17;;;-4.20;99.90;;;;;;7378555;32;20152;-58
2022/12/14 03:02:05;;;;;;;7.40;3.12;;;-4.30;99.90;;;;;;7382970;32;20107;-58
2022/12/14 03:06:14;;;;;;;7.28;3.58;;;-4.50;99.90;;;;;;7384366;32;20122;-59
2022/12/14 03:10:49;;;;;;;6.90;3.12;;;-4.50;99.90;;;;;;7382349;32;20133;-59
2022/12/14 03:14:53;;;;;;;6.70;3.62;;;-4.40;99.90;;;;;;7377048;32;20111;-59
2022/12/14 03:19:00;;;;;;;5.78;2.95;;;-4.40;99.90;;;;;;7382900;32;20515;-59
2022/12/14 03:23:12;;;;;;;5.80;3.05;;;-4.40;99.90;;;;;;7384842;32;20178;-58
2022/12/14 03:27:16;;;;;;;6.55;3.10;;;-4.40;99.90;;;;;;7377767;32;20115;-59
2022/12/14 03:31:28;;;;;;;5.28;3.30;;;-4.30;99.90;;;;;;7375856;32;20201;-59
2022/12/14 03:35:38;;;;;;;4.90;2.72;;;-4.30;99.90;;;;;;7376999;32;20115;-61
2022/12/14 03:39:42;;;;;;;6.57;3.67;;;-4.30;99.90;;;;;;7379533;32;20596;-59
2022/12/14 03:43:55;;;;;;;6.00;3.40;;;-4.30;99.90;;;;;;7379498;32;20126;-59
2022/12/14 03:48:09;;;;;;;7.57;3.35;;;-4.30;99.90;;;;;;7377087;32;20125;-59
2022/12/14 03:52:22;;;;;;;6.30;3.40;;;-4.20;99.90;;;;;;7372229;32;20569;-59
2022/12/14 03:56:51;;;;;;;5.62;3.22;;;-4.20;99.90;;;;;;7372788;32;20138;-60
2022/12/14 04:01:00;;;;;;;8.38;3.58;;;-4.10;99.90;;;;;;7377901;32;20527;-60
2022/12/14 04:05:14;;;;;;;8.20;3.60;;;-4.10;99.90;;;;;;7381094;32;20178;-59
2022/12/14 04:09:32;;;;;;;5.90;3.42;;;-4.10;99.90;;;;;;7375194;32;20103;-59
2022/12/14 04:22:42;;;;;;;;;;;-3.90;99.90;;;;;;7383691;32;20111;-59
2022/12/14 04:26:57;;;;;;;6.35;2.65;;;-3.80;99.90;;;;;;7379291;32;20017;-59
2022/12/14 04:31:03;;;;;;;4.55;2.35;;;-3.80;99.90;;;;;;7371665;32;20198;-61
2022/12/14 04:35:08;;;;;;;6.80;3.40;;;-3.70;99.90;;;;;;7381886;32;20436;-59
2022/12/14 04:39:23;;;;;;;7.45;2.92;;;-3.80;99.90;;;;;;7383841;32;20201;-59
2022/12/14 04:43:30;;;;;;;6.00;2.60;;;-3.70;99.90;;;;;;7375410;32;20178;-59
2022/12/14 04:47:39;;;;;;;5.07;2.47;;;-3.70;99.90;;;;;;7380001;32;20174;-59
2022/12/14 04:52:20;;;;;;;5.53;2.37;;;-3.70;99.90;;;;;;7381130;32;20503;-59
2022/12/14 04:56:29;;;;;;;4.68;2.60;;;-3.70;99.90;;;;;;7316265;32;20637;-59
2022/12/14 05:00:35;;;;;;;4.12;2.05;;;-3.60;99.90;;;;;;7374916;32;20633;-59
2022/12/14 05:04:53;;;;;;;6.87;2.72;;;-3.60;99.90;;;;;;7371288;32;20558;-59
2022/12/14 05:09:22;;;;;;;5.22;2.78;;;-3.60;99.90;;;;;;7376688;32;20378;-59
2022/12/14 05:13:39;;;;;;;4.35;2.25;;;-3.60;99.90;;;;;;7378604;32;20135;-59
2022/12/14 05:17:41;;;;;;;4.70;2.30;;;-3.50;99.90;;;;;;7376371;32;20107;-59
2022/12/14 05:21:46;;;;;;;4.62;2.55;;;-3.40;99.90;;;;;;7376683;32;20296;-60
2022/12/14 05:25:47;;;;;;;5.43;3.03;;;-3.50;99.90;;;;;;7380585;32;20118;-61
2022/12/14 05:29:49;;;;;;;5.80;2.47;;;-3.40;99.90;;;;;;7375381;32;20528;-59
2022/12/14 05:33:51;;;;;;;5.47;2.97;;;-3.40;99.90;;;;;;7363718;32;20132;-59
2022/12/14 05:37:53;;;;;;;5.32;2.70;;;-3.40;99.90;;;;;;7374071;32;20162;-59
2022/12/14 05:41:55;;;;;;;5.75;2.67;;;-3.40;99.90;;;;;;7363304;32;20218;-59
2022/12/14 05:46:01;;;;;;;5.62;3.00;;;-3.40;99.90;;;;;;7371254;32;20119;-60
2022/12/14 05:50:03;;;;;;;5.05;2.55;;;-3.30;99.90;;;;;;7372883;32;20614;-59
2022/12/14 05:54:05;;;;;;;7.53;3.22;;;-3.30;99.90;;;;;;7371884;32;20359;-59
2022/12/14 05:58:06;;;;;;;6.80;3.28;;;-3.30;99.90;;;;;;7377883;32;20107;-60
2022/12/14 06:02:08;;;;;;;6.68;3.00;;;-3.30;99.90;;;;;;7371706;32;20205;-59
2022/12/14 06:06:11;;;;;;;6.80;2.85;;;-3.30;99.90;;;;;;7371737;32;20186;-58
2022/12/14 06:10:13;;;;;;;8.07;3.42;;;-3.40;99.90;;;;;;7375207;32;20229;-60
2022/12/14 06:14:15;;;;;;;6.93;3.95;;;-3.30;99.90;;;;;;7381197;32;20145;-59
2022/12/14 06:18:18;;;;;;;6.15;3.08;;;-3.30;99.90;;;;;;7377029;32;20241;-59
2022/12/14 06:22:20;;;;;;;8.48;3.90;;;-3.20;99.90;;;;;;7374686;32;20173;-59
2022/12/14 06:26:22;;;;;;;5.50;3.15;;;-3.20;99.90;;;;;;7370768;32;20186;-59
2022/12/14 06:30:24;;;;;;;7.20;3.40;;;-3.40;99.90;;;;;;7372228;32;20141;-59
2022/12/14 06:34:25;;;;;;;7.65;3.33;;;-3.20;99.90;;;;;;7378065;32;20110;-59
2022/12/14 06:38:29;;;;;;;5.80;3.00;;;-3.20;99.90;;;;;;7369772;32;20110;-59
2022/12/14 06:42:31;;;;;;;4.68;2.70;;;-3.20;99.90;;;;;;7380604;32;20474;-59
2022/12/14 06:46:34;;;;;;;6.25;3.05;;;-3.10;99.90;;;;;;7373497;32;20130;-62
2022/12/14 06:50:36;;;;;;;10.75;5.78;;;-3.20;99.90;;;;;;7379604;32;20599;-60
2022/12/14 06:54:38;;;;;;;9.25;4.70;;;-3.10;99.90;;;;;;7381089;32;20234;-59
2022/12/14 06:58:40;;;;;;;8.18;4.80;;;-3.20;99.90;;;;;;7373923;32;20110;-59
2022/12/14 07:02:41;;;;;;;8.30;4.78;;;-3.20;99.90;;;;;;7372566;32;20560;-60
2022/12/14 07:06:43;;;;;;;8.02;4.28;;;-3.10;99.90;;;;;;7364066;32;20122;-60
2022/12/14 07:10:45;;;;;;;6.30;3.50;;;-3.10;99.90;;;;;;7363661;32;20886;-60
2022/12/14 07:14:46;;;;;;;8.50;3.53;;;-3.00;99.90;;;;;;7372899;32;20189;-59
2022/12/14 07:18:49;;;;;;;6.05;3.17;;;-3.00;99.90;;;;;;7373321;32;20126;-59
2022/12/14 07:22:50;;;;;;;17.40;7.85;;;-3.00;99.90;;;;;;7367341;32;20152;-60
2022/12/14 07:26:52;;;;;;;6.80;4.03;;;-3.00;99.90;;;;;;7380493;32;20148;-60
2022/12/14 07:30:55;;;;;;;8.63;3.67;;;-3.00;99.90;;;;;;7371705;32;20111;-61
2022/12/14 07:34:57;;;;;;;8.57;3.55;;;-2.90;99.90;;;;;;7372186;32;20107;-61
2022/12/14 07:38:58;;;;;;;6.82;3.40;;;-2.90;99.90;;;;;;7373397;32;20206;-60
2022/12/14 07:43:00;;;;;;;6.50;3.45;;;-2.80;99.90;;;;;;7377099;32;20178;-61
2022/12/14 07:47:02;;;;;;;6.45;3.30;;;-2.80;99.90;;;;;;7371600;32;20463;-60
2022/12/14 07:51:06;;;;;;;5.70;3.25;;;-2.90;99.90;;;;;;7372903;32;20436;-60
2022/12/14 07:55:08;;;;;;;7.47;3.53;;;-2.70;99.90;;;;;;7372772;32;20887;-60
2022/12/14 07:59:15;;;;;;;9.45;3.92;;;-2.70;99.90;;;;;;7377852;32;20132;-60
2022/12/14 08:03:16;;;;;;;6.53;3.60;;;-2.70;99.90;;;;;;7369239;32;20574;-61
2022/12/14 08:07:18;;;;;;;8.98;4.30;;;-2.70;99.90;;;;;;7374567;32;20215;-60
2022/12/14 08:11:21;;;;;;;12.43;6.50;;;-2.70;99.90;;;;;;7379482;32;20248;-60
2022/12/14 08:15:22;;;;;;;14.18;6.68;;;-2.70;99.90;;;;;;7378270;32;20240;-60
2022/12/14 08:19:24;;;;;;;14.02;7.75;;;-2.60;99.90;;;;;;7374926;32;20110;-60
2022/12/14 08:23:26;;;;;;;9.18;4.75;;;-2.60;99.90;;;;;;7375112;32;22420;-61
2022/12/14 08:27:31;;;;;;;7.18;4.68;;;-2.50;99.90;;;;;;7369217;32;20257;-61
2022/12/14 08:31:33;;;;;;;10.63;4.55;;;-2.40;99.90;;;;;;7375104;32;20851;-61
2022/12/14 08:35:35;;;;;;;9.98;4.12;;;-2.40;99.90;;;;;;7373300;32;20129;-60
2022/12/14 08:39:36;;;;;;;12.98;5.45;;;-2.40;99.90;;;;;;7370868;32;20209;-60
2022/12/14 08:43:39;;;;;;;7.47;4.10;;;-2.30;99.90;;;;;;7365033;32;20233;-61
2022/12/14 08:47:41;;;;;;;9.00;4.65;;;-2.20;99.90;;;;;;7373366;32;20190;-60
2022/12/14 08:51:43;;;;;;;23.02;11.18;;;-2.20;99.90;;;;;;7378216;32;20174;-61
2022/12/14 08:55:45;;;;;;;20.83;10.60;;;-2.10;99.90;;;;;;7365368;32;20170;-61
2022/12/14 08:59:47;;;;;;;14.10;7.53;;;-2.00;99.90;;;;;;7372626;32;20609;-61
2022/12/14 09:04:06;;;;;;;7.95;3.97;;;-1.90;99.90;;;;;;7378348;32;20111;-61
2022/12/14 09:08:08;;;;;;;7.37;4.45;;;-1.80;99.90;;;;;;7378482;32;20175;-61
2022/12/14 09:12:09;;;;;;;35.38;15.18;;;-1.90;99.90;;;;;;7373048;32;20115;-61
2022/12/14 09:16:17;;;;;;;16.92;8.88;;;-1.80;99.90;;;;;;7371570;32;20648;-62
2022/12/14 09:20:19;;;;;;;19.52;9.52;;;-1.70;99.90;;;;;;7379042;32;20277;-62
2022/12/14 09:24:23;;;;;;;18.80;8.75;;;-1.60;99.90;;;;;;7375232;32;20488;-61
2022/12/14 09:28:26;;;;;;;13.68;7.12;;;-1.60;99.90;;;;;;7376998;32;20115;-61
2022/12/14 09:32:28;;;;;;;7.45;4.60;;;-1.60;99.90;;;;;;7371029;32;20111;-62
2022/12/14 09:36:30;;;;;;;13.52;4.90;;;-1.60;99.90;;;;;;7366224;32;20107;-60
2022/12/14 09:40:32;;;;;;;11.45;5.50;;;-1.50;99.90;;;;;;7369437;32;20138;-61
2022/12/14 09:44:51;;;;;;;11.77;5.97;;;-1.40;99.90;;;;;;7370122;32;20610;-59
2022/12/14 09:48:55;;;;;;;11.23;5.80;;;-1.30;99.90;;;;;;7372254;32;20123;-60
2022/12/14 09:53:04;;;;;;;13.02;6.50;;;-1.30;99.90;;;;;;7371912;32;20353;-60
2022/12/14 09:57:33;;;;;;;11.70;6.12;;;-1.10;99.90;;;;;;7379651;32;20573;-60
2022/12/14 10:01:47;;;;;;;11.93;5.47;;;-0.90;99.90;;;;;;7364663;32;20654;-60
2022/12/14 10:07:03;;;;;;;11.07;5.53;;;-0.80;99.90;;;;;;7380143;32;20384;-60
2022/12/14 10:11:15;;;;;;;11.27;5.62;;;-0.60;99.90;;;;;;7321026;32;20115;-61
2022/12/14 10:15:39;;;;;;;16.98;7.25;;;-0.60;99.90;;;;;;7369898;32;20110;-60
2022/12/14 10:19:53;;;;;;;12.50;6.00;;;-0.60;99.90;;;;;;7381203;32;20190;-60
2022/12/14 10:24:03;;;;;;;12.82;6.35;;;-0.60;99.90;;;;;;7375043;32;20133;-60
2022/12/14 10:28:19;;;;;;;12.60;6.18;;;-0.70;99.90;;;;;;7370238;32;20107;-60
2022/12/14 10:32:34;;;;;;;10.18;5.72;;;-0.60;99.90;;;;;;7374629;32;20103;-60
2022/12/14 10:36:54;;;;;;;11.68;5.70;;;-0.40;99.90;;;;;;7368438;32;20428;-60
2022/12/14 10:41:26;;;;;;;10.75;5.45;;;-0.40;99.90;;;;;;7370683;32;20573;-60
2022/12/14 10:45:40;;;;;;;8.85;4.97;;;-0.20;99.90;;;;;;7378701;32;20135;-61
2022/12/14 10:50:28;;;;;;;7.47;4.75;;;-0.10;99.90;;;;;;7378557;32;20106;-60
2022/12/14 10:54:44;;;;;;;11.12;5.18;;;0.00;99.90;;;;;;7379696;32;20115;-60
2022/12/14 10:59:19;;;;;;;8.55;4.85;;;0.10;99.90;;;;;;7377105;32;20224;-60
2022/12/14 11:03:21;;;;;;;10.75;4.47;;;0.20;99.90;;;;;;7375341;32;20111;-60
2022/12/14 11:07:32;;;;;;;10.23;5.25;;;0.20;99.90;;;;;;7377039;32;20131;-60
2022/12/14 11:11:34;;;;;;;8.65;5.03;;;0.30;99.90;;;;;;7372998;32;20145;-59
2022/12/14 11:15:44;;;;;;;8.00;4.93;;;0.50;99.90;;;;;;7382337;32;20107;-59
2022/12/14 11:20:22;;;;;;;8.50;5.18;;;0.50;99.90;;;;;;7379920;32;20126;-61
2022/12/14 11:24:26;;;;;;;9.80;5.95;;;0.60;99.90;;;;;;7384917;32;20163;-61
2022/12/14 11:28:28;;;;;;;10.15;5.87;;;0.70;99.90;;;;;;7381638;32;20119;-60
2022/12/14 11:32:38;;;;;;;9.07;4.87;;;0.80;99.90;;;;;;7381750;32;20621;-61
2022/12/14 11:36:40;;;;;;;11.25;5.00;;;0.70;99.90;;;;;;7382193;32;20205;-61
2022/12/14 11:40:42;;;;;;;10.85;5.65;;;0.70;99.90;;;;;;7380248;32;20111;-60
2022/12/14 11:44:46;;;;;;;10.13;5.43;;;0.80;99.90;;;;;;7385594;32;20137;-60
2022/12/14 11:48:48;;;;;;;10.50;5.28;;;0.80;99.90;;;;;;7375036;32;20114;-61
2022/12/14 11:52:50;;;;;;;12.10;6.00;;;1.00;99.90;;;;;;7368914;32;20228;-61
2022/12/14 11:57:00;;;;;;;9.48;5.50;;;1.10;99.90;;;;;;7377045;32;20229;-61
2022/12/14 12:01:11;;;;;;;11.65;5.80;;;1.00;99.90;;;;;;7374900;32;20115;-60
2022/12/14 12:05:16;;;;;;;9.07;5.62;;;1.10;99.90;;;;;;7373529;32;20114;-61
2022/12/14 12:09:28;;;;;;;10.55;6.68;;;1.20;99.90;;;;;;7373649;32;20229;-60
2022/12/14 12:13:39;;;;;;;10.90;6.22;;;1.20;99.90;;;;;;7376824;32;20261;-60
2022/12/14 12:17:43;;;;;;;10.23;5.72;;;1.30;99.90;;;;;;7380290;32;20115;-60
2022/12/14 12:21:46;;;;;;;11.90;6.78;;;1.30;99.90;;;;;;7377620;32;20111;-61
2022/12/14 12:25:50;;;;;;;9.00;5.70;;;1.20;99.90;;;;;;7373555;32;20107;-61
2022/12/14 12:30:00;;;;;;;9.40;5.55;;;1.10;99.90;;;;;;7372321;32;20123;-60
2022/12/14 12:34:11;;;;;;;10.80;5.80;;;1.00;99.90;;;;;;7375631;32;20106;-60
2022/12/14 12:38:48;;;;;;;9.90;5.47;;;0.70;99.90;;;;;;7379617;32;20141;-61
2022/12/14 12:43:11;;;;;;;11.70;5.35;;;0.50;99.90;;;;;;7375277;32;20137;-60
2022/12/14 12:47:25;;;;;;;10.15;6.32;;;0.40;99.90;;;;;;7379903;32;20547;-60
2022/12/14 12:51:57;;;;;;;14.93;6.12;;;0.50;99.90;;;;;;7366087;32;20538;-60
2022/12/14 12:56:10;;;;;;;11.95;6.90;;;0.20;99.90;;;;;;7368252;32;20515;-61
2022/12/14 13:00:18;;;;;;;10.73;6.07;;;0.20;99.90;;;;;;7373442;32;20128;-60
2022/12/14 13:04:39;;;;;;;13.07;7.05;;;0.20;99.90;;;;;;7382352;32;20193;-60
2022/12/14 13:08:44;;;;;;;12.65;6.55;;;0.20;99.90;;;;;;7370374;32;20694;-61
2022/12/14 13:13:07;;;;;;;11.88;5.93;;;0.20;99.90;;;;;;7378173;32;20142;-61
2022/12/14 13:17:26;;;;;;;10.38;5.75;;;0.20;99.90;;;;;;7371538;32;20218;-60
2022/12/14 13:21:31;;;;;;;11.38;6.03;;;0.10;99.90;;;;;;7375209;32;20116;-60
2022/12/14 13:26:07;;;;;;;12.15;6.87;;;0.20;99.90;;;;;;7370286;32;20157;-60
2022/12/14 13:30:08;;;;;;;12.10;6.60;;;0.40;99.90;;;;;;7372967;32;20255;-60
2022/12/14 13:34:17;;;;;;;11.25;6.57;;;0.60;99.90;;;;;;7374068;32;20223;-60
2022/12/14 13:38:31;;;;;;;12.60;7.07;;;0.60;99.90;;;;;;7355396;32;20129;-61
2022/12/14 13:42:47;;;;;;;11.12;6.40;;;0.70;99.90;;;;;;7375789;32;20111;-61
2022/12/14 13:46:59;;;;;;;9.52;5.57;;;0.90;99.90;;;;;;7375821;32;20582;-61
2022/12/14 13:51:06;;;;;;;10.90;6.32;;;0.60;99.90;;;;;;7373942;32;20197;-60
2022/12/14 13:55:23;;;;;;;13.38;7.60;;;0.50;99.90;;;;;;7369243;32;20115;-61
2022/12/14 13:59:36;;;;;;;11.50;6.45;;;0.40;99.90;;;;;;7376943;32;20238;-60
2022/12/14 14:03:37;;;;;;;10.82;6.55;;;0.30;99.90;;;;;;7369131;32;20103;-60
2022/12/14 14:07:55;;;;;;;11.80;6.15;;;0.50;99.90;;;;;;7377530;32;20107;-62
2022/12/14 14:12:19;;;;;;;;;;;0.70;99.90;;;;;;7369449;32;20529;-60
2022/12/14 14:16:24;;;;;;;24.90;8.63;;;0.70;99.90;;;;;;7373283;32;20151;-61
2022/12/14 14:20:40;;;;;;;14.18;7.00;;;0.50;99.90;;;;;;7369877;32;20222;-60
2022/12/14 14:25:03;;;;;;;14.27;7.35;;;0.40;99.90;;;;;;7372262;32;20119;-59
2022/12/14 14:29:28;;;;;;;15.82;7.45;;;0.40;99.90;;;;;;7370931;32;20210;-60
2022/12/14 14:33:44;;;;;;;12.15;7.32;;;0.10;99.90;;;;;;7367558;32;20146;-60
2022/12/14 14:37:55;;;;;;;19.67;7.57;;;0.00;99.90;;;;;;7378846;32;20189;-61
2022/12/14 14:41:59;;;;;;;13.50;7.65;;;-0.20;99.90;;;;;;7363792;32;20118;-61
2022/12/14 14:46:07;;;;;;;15.35;7.95;;;-0.30;99.90;;;;;;7370066;32;20125;-60
2022/12/14 14:50:14;;;;;;;14.57;7.22;;;-0.40;99.90;;;;;;7373566;32;20153;-60
2022/12/14 14:54:16;;;;;;;13.52;7.32;;;-0.50;99.90;;;;;;7367519;32;20198;-63
2022/12/14 14:58:40;;;;;;;18.48;8.00;;;-0.60;99.90;;;;;;7370647;32;20129;-62
2022/12/14 15:02:44;;;;;;;12.90;7.82;;;-0.70;99.90;;;;;;7369907;32;20193;-61
2022/12/14 15:06:49;;;;;;;14.07;7.45;;;-0.80;99.90;;;;;;7368946;32;20149;-64
2022/12/14 15:10:52;;;;;;;14.30;8.23;;;-0.90;99.90;;;;;;7373282;32;20133;-62
2022/12/14 15:14:59;;;;;;;13.10;7.30;;;-1.00;99.90;;;;;;7372559;32;20111;-63
2022/12/14 15:19:20;;;;;;;;;;;-1.00;99.90;;;;;;7374968;32;20111;-62
2022/12/14 15:23:23;;;;;;;13.80;7.97;;;-1.20;99.90;;;;;;7374533;32;20663;-62
2022/12/14 15:27:37;;;;;;;16.45;8.60;;;-1.30;99.90;;;;;;7371011;32;20107;-63
2022/12/14 15:31:40;;;;;;;13.00;7.10;;;-1.40;99.90;;;;;;7372697;32;20508;-63
2022/12/14 15:35:42;;;;;;;15.32;7.22;;;-1.60;99.90;;;;;;7381755;32;20107;-61
2022/12/14 15:39:44;;;;;;;15.82;7.30;;;-1.70;99.90;;;;;;7367130;32;20115;-61
2022/12/14 15:43:48;;;;;;;14.00;7.32;;;-1.80;99.90;;;;;;7367029;32;20773;-61
2022/12/14 15:47:50;;;;;;;12.27;7.07;;;-1.80;99.90;;;;;;7374787;32;20148;-61
2022/12/14 15:51:53;;;;;;;10.98;6.47;;;-1.90;99.90;;;;;;7374902;32;20134;-61
2022/12/14 15:55:57;;;;;;;12.57;7.75;;;-2.00;99.90;;;;;;7375856;32;20112;-62
2022/12/14 16:00:09;;;;;;;13.55;8.50;;;-2.10;99.90;;;;;;7371968;32;20208;-60
2022/12/14 16:04:20;;;;;;;13.52;8.25;;;-2.10;99.90;;;;;;7374113;32;20213;-61
2022/12/14 16:08:22;;;;;;;15.00;8.52;;;-2.20;99.90;;;;;;7377359;32;20141;-61
2022/12/14 16:12:33;;;;;;;18.70;12.23;;;-2.30;99.90;;;;;;7374814;32;20119;-62
2022/12/14 16:16:41;;;;;;;19.75;11.75;;;-2.30;99.90;;;;;;7375686;32;20290;-62
2022/12/14 16:20:53;;;;;;;37.42;19.95;;;-2.40;99.90;;;;;;7378561;32;20157;-62
2022/12/14 16:25:07;;;;;;;28.62;16.50;;;-2.40;99.90;;;;;;7373729;32;20115;-62
2022/12/14 16:29:21;;;;;;;20.17;11.95;;;-2.50;99.90;;;;;;7379100;32;20132;-62
2022/12/14 16:33:24;;;;;;;22.48;12.10;;;-2.60;99.90;;;;;;7369041;32;20565;-62
2022/12/14 16:37:26;;;;;;;21.30;12.37;;;-2.70;99.90;;;;;;7376471;32;20107;-60
2022/12/14 16:41:39;;;;;;;22.95;13.00;;;-2.80;99.90;;;;;;7380205;32;20236;-61
2022/12/14 16:45:41;;;;;;;22.08;12.23;;;-2.80;99.90;;;;;;7379058;32;20193;-61
2022/12/14 16:49:53;;;;;;;22.77;13.65;;;-2.80;99.90;;;;;;7377038;32;20142;-61
2022/12/14 16:53:58;;;;;;;23.73;13.68;;;-2.90;99.90;;;;;;7381673;32;20225;-60
2022/12/14 16:58:01;;;;;;;20.05;10.55;;;-3.00;99.90;;;;;;7372834;32;20197;-61
2022/12/14 17:02:03;;;;;;;16.92;10.52;;;-3.10;99.90;;;;;;7371981;32;20534;-61
2022/12/14 17:06:06;;;;;;;12.65;8.38;;;-3.10;99.90;;;;;;7371903;32;20107;-60
2022/12/14 17:10:20;;;;;;;13.88;9.27;;;-3.20;99.90;;;;;;7374637;32;20118;-60
2022/12/14 17:14:22;;;;;;;16.98;8.77;;;-3.20;99.90;;;;;;7369502;32;20137;-60
2022/12/14 17:18:29;;;;;;;17.27;9.85;;;-3.30;99.90;;;;;;7372141;32;20818;-60
2022/12/14 17:22:32;;;;;;;18.77;10.88;;;-3.30;99.90;;;;;;7371111;32;20639;-60
2022/12/14 17:26:33;;;;;;;15.77;11.38;;;-3.40;99.90;;;;;;7379247;32;20541;-60
2022/12/14 17:30:36;;;;;;;19.67;10.65;;;-3.50;99.90;;;;;;7374688;32;20119;-60
2022/12/14 17:34:38;;;;;;;30.80;17.37;;;-3.50;99.90;;;;;;7366620;32;20146;-61
2022/12/14 17:38:40;;;;;;;16.15;10.13;;;-3.60;99.90;;;;;;7376866;32;20115;-60
2022/12/14 17:42:46;;;;;;;17.95;9.77;;;-3.70;99.90;;;;;;7371736;32;20634;-60
2022/12/14 17:46:48;;;;;;;16.77;10.73;;;-3.70;99.90;;;;;;7372518;32;20184;-60
2022/12/14 17:50:50;;;;;;;22.83;14.30;;;-3.80;99.90;;;;;;7376328;32;20260;-60
2022/12/14 17:54:52;;;;;;;19.80;12.00;;;-3.80;99.90;;;;;;7379000;32;20222;-60
2022/12/14 17:58:53;;;;;;;22.23;12.25;;;-3.90;99.90;;;;;;7377051;32;20447;-61
2022/12/14 18:02:55;;;;;;;21.17;11.00;;;-3.90;99.90;;;;;;7379516;32;20131;-61
2022/12/14 18:06:57;;;;;;;19.20;12.90;;;-4.00;99.90;;;;;;7371010;32;20111;-61
2022/12/14 18:11:02;;;;;;;19.50;12.45;;;-4.10;99.90;;;;;;7376600;32;20167;-62
2022/12/14 18:15:18;;;;;;;19.02;12.30;;;-4.10;99.90;;;;;;7377719;32;20625;-60
2022/12/14 18:19:20;;;;;;;18.60;11.52;;;-4.30;99.90;;;;;;7376631;32;20111;-60
2022/12/14 18:23:22;;;;;;;20.23;11.00;;;-4.30;99.90;;;;;;7373621;32;20295;-60
2022/12/14 18:27:24;;;;;;;15.95;10.60;;;-4.30;99.90;;;;;;7375967;32;20168;-60
2022/12/14 18:31:31;;;;;;;18.65;10.15;;;-4.30;99.90;;;;;;7369280;32;20620;-61
2022/12/14 18:35:33;;;;;;;15.90;9.13;;;-4.40;99.90;;;;;;7368562;32;20210;-60
2022/12/14 18:39:35;;;;;;;16.98;9.77;;;-4.40;99.90;;;;;;7365131;32;20169;-60
2022/12/14 18:43:37;;;;;;;20.85;11.77;;;-4.50;99.90;;;;;;7374998;32;20227;-61
2022/12/14 18:47:45;;;;;;;20.12;12.50;;;-4.60;99.90;;;;;;7371760;32;20125;-60
2022/12/14 18:51:46;;;;;;;20.27;11.23;;;-4.60;99.90;;;;;;7379234;32;20274;-62
2022/12/14 18:55:48;;;;;;;23.10;10.77;;;-4.60;99.90;;;;;;7369014;32;20148;-60
2022/12/14 18:59:50;;;;;;;33.83;16.62;;;-4.70;99.90;;;;;;7380600;32;20111;-62
2022/12/14 19:03:52;;;;;;;25.17;12.95;;;-4.80;99.90;;;;;;7373072;32;20112;-60
2022/12/14 19:07:56;;;;;;;29.00;14.48;;;-4.80;99.90;;;;;;7366400;32;20179;-60
2022/12/14 19:11:57;;;;;;;26.10;11.90;;;-4.80;99.90;;;;;;7370710;32;20169;-60
2022/12/14 19:15:59;;;;;;;17.98;11.02;;;-4.80;99.90;;;;;;7367184;32;20134;-62
2022/12/14 19:20:01;;;;;;;19.65;11.80;;;-4.90;99.90;;;;;;7371806;32;20153;-59
2022/12/14 19:24:03;;;;;;;21.55;10.75;;;-4.90;99.90;;;;;;7375121;32;20198;-61
2022/12/14 19:28:05;;;;;;;38.65;18.23;;;-5.00;99.90;;;;;;7374059;32;20102;-59
2022/12/14 19:32:27;;;;;;;40.40;18.90;;;-4.90;99.90;;;;;;7373315;32;20141;-60
2022/12/14 19:36:29;;;;;;;38.90;19.55;;;-5.20;99.90;;;;;;7374408;32;20126;-60
2022/12/14 19:40:31;;;;;;;29.75;17.17;;;-5.20;99.90;;;;;;7371935;32;20646;-60
2022/12/14 19:44:33;;;;;;;36.67;17.67;;;-5.10;99.90;;;;;;7378097;32;20202;-60
2022/12/14 19:48:35;;;;;;;46.05;20.33;;;-5.30;99.90;;;;;;7370261;32;20218;-60
2022/12/14 19:52:37;;;;;;;39.10;19.23;;;-5.30;99.90;;;;;;7382306;32;20220;-62
2022/12/14 19:56:38;;;;;;;30.85;15.98;;;-5.30;99.90;;;;;;7368336;32;20291;-61
2022/12/14 20:00:40;;;;;;;21.37;12.35;;;-5.40;99.90;;;;;;7375464;32;20114;-60
2022/12/14 20:04:42;;;;;;;19.77;9.63;;;-5.40;99.90;;;;;;7377814;32;20131;-60
2022/12/14 20:08:44;;;;;;;19.98;11.27;;;-5.50;99.90;;;;;;7370481;32;20161;-60
2022/12/14 20:12:50;;;;;;;19.65;11.38;;;-5.60;99.90;;;;;;7376653;32;20266;-61
2022/12/14 20:16:53;;;;;;;25.17;13.55;;;-5.70;99.90;;;;;;7379003;32;20145;-61
2022/12/14 20:21:04;;;;;;;18.52;10.80;;;-5.70;99.90;;;;;;7371779;32;20197;-60
2022/12/14 20:25:06;;;;;;;17.05;10.52;;;-5.70;99.90;;;;;;7372536;32;20115;-61
2022/12/14 20:29:09;;;;;;;20.83;11.30;;;-5.70;99.90;;;;;;7383436;32;20111;-61
2022/12/14 20:33:11;;;;;;;23.80;11.23;;;-5.90;99.90;;;;;;7378497;32;20219;-60
2022/12/14 20:37:13;;;;;;;20.15;10.40;;;-5.90;99.90;;;;;;7381494;32;20227;-59
2022/12/14 20:41:15;;;;;;;20.12;10.70;;;-6.00;99.90;;;;;;7373980;32;20111;-59
2022/12/14 20:45:16;;;;;;;20.92;10.13;;;-6.00;99.90;;;;;;7372744;32;20137;-61
2022/12/14 20:49:20;;;;;;;19.12;9.98;;;-5.90;99.90;;;;;;7372279;32;20440;-60
2022/12/14 20:53:21;;;;;;;19.33;10.18;;;-5.90;99.90;;;;;;7374674;32;20156;-60
2022/12/14 20:57:25;;;;;;;18.83;10.13;;;-6.00;99.90;;;;;;7371937;32;20198;-61
2022/12/14 21:01:27;;;;;;;20.10;10.32;;;-6.00;99.90;;;;;;7376416;32;20221;-61
2022/12/14 21:05:28;;;;;;;16.37;9.32;;;-6.00;99.90;;;;;;7374361;32;20288;-61
2022/12/14 21:09:30;;;;;;;18.73;9.30;;;-6.10;99.90;;;;;;7373273;32;20107;-60
2022/12/14 21:13:32;;;;;;;19.08;10.07;;;-6.00;99.90;;;;;;7372213;32;20106;-59
2022/12/14 21:17:34;;;;;;;21.00;9.50;;;-6.20;99.90;;;;;;7373965;32;20823;-59
2022/12/14 21:21:36;;;;;;;19.12;10.02;;;-6.20;99.90;;;;;;7380046;32;20107;-60
2022/12/14 21:25:37;;;;;;;20.25;9.57;;;-6.20;99.90;;;;;;7372083;32;20201;-60
2022/12/14 21:29:39;;;;;;;16.50;10.40;;;-6.30;99.90;;;;;;7371932;32;20579;-60